Time;durP1;ratioP1;P1;durP2;ratioP2;P2;SDS_P1;SDS_P2;PMS_P1;PMS_P2;Temp;Humidity;BMP_temperature;BMP_pressure;BME280_temperature;BME280_humidity;BME280_pressure;Samples;Min_cycle;Max_cycle;Signal;HPM_P1;HPM_P2
2022/02/22 12:51:19;;;;;;;2.17;0.88;;;18.40;37.50;21.10;94453.00;;;;10541863;27;45190;-75
2022/02/22 12:56:30;;;;;;;3.63;1.07;;;18.80;37.40;21.20;94441.00;;;;10513078;28;47066;-76
2022/02/22 13:01:34;;;;;;;3.00;0.75;;;19.60;36.00;21.40;94415.00;;;;10514736;27;45629;-76
2022/02/22 13:06:36;;;;;;;4.95;0.80;;;20.20;35.40;21.50;94439.00;;;;10490561;28;47075;-76
2022/02/22 13:11:39;;;;;;;3.53;1.10;;;20.60;33.80;21.70;94416.00;;;;10453918;28;47997;-77
2022/02/22 13:17:03;;;;;;;2.88;1.10;;;20.90;32.60;21.70;94429.00;;;;10454815;28;47974;-77
2022/02/22 13:22:10;;;;;;;3.00;1.15;;;21.10;32.20;21.80;94435.00;;;;10433979;28;47209;-77
2022/02/22 13:27:11;;;;;;;4.15;0.90;;;21.20;31.70;21.80;94413.00;;;;10441165;28;47212;-76
2022/02/22 13:32:13;;;;;;;4.72;1.30;;;21.30;31.40;21.80;94418.00;;;;10471216;28;45167;-76
2022/02/22 13:37:39;;;;;;;4.72;1.08;;;21.40;31.30;21.90;94388.00;;;;10470753;28;45312;-76
2022/02/22 13:42:41;;;;;;;3.75;1.30;;;21.40;31.10;21.80;94383.00;;;;10470664;28;46876;-77
2022/02/22 13:47:44;;;;;;;4.57;0.80;;;21.50;31.00;21.80;94415.00;;;;10453315;28;47219;-77
2022/02/22 13:53:16;;;;;;;4.22;1.23;;;21.50;30.90;21.90;94417.00;;;;10453767;28;47834;-77
2022/02/22 13:58:22;;;;;;;2.53;0.88;;;21.50;30.80;21.80;94414.00;;;;10466384;28;45412;-77
2022/02/22 14:03:23;;;;;;;3.95;0.90;;;21.50;30.70;21.80;94407.00;;;;10425255;28;48196;-76
2022/02/22 14:08:24;;;;;;;3.53;1.00;;;21.60;30.70;21.80;94408.00;;;;10430590;22;47109;-73
2022/02/22 14:13:25;;;;;;;3.85;1.20;;;21.50;30.60;21.80;94409.00;;;;10400365;28;47657;-73
2022/02/22 14:18:25;;;;;;;3.38;1.10;;;21.60;31.20;21.80;94413.00;;;;10400995;28;45284;-74
2022/02/22 14:23:26;;;;;;;4.85;1.55;;;21.60;30.50;21.90;94432.00;;;;10399808;28;47195;-74
2022/02/22 14:28:27;;;;;;;3.35;0.95;;;21.60;30.50;21.80;94451.00;;;;10399586;28;45426;-74
2022/02/22 14:33:28;;;;;;;4.43;1.10;;;21.60;30.50;21.80;94422.00;;;;10401168;28;45375;-73
2022/02/22 14:38:28;;;;;;;3.17;0.85;;;21.50;30.40;21.80;94418.00;;;;10399401;28;46748;-74
2022/02/22 14:43:29;;;;;;;2.65;1.05;;;21.50;30.40;21.80;94407.00;;;;10399314;28;47084;-74
2022/02/22 14:48:30;;;;;;;2.55;0.90;;;21.50;30.40;21.80;94412.00;;;;10382155;28;46884;-73
2022/02/22 14:53:31;;;;;;;3.13;1.00;;;21.50;30.30;21.80;94418.00;;;;10382557;28;47825;-74
2022/02/22 14:58:31;;;;;;;2.47;1.00;;;21.50;30.30;21.80;94417.00;;;;10398681;28;46678;-74
2022/02/22 15:03:33;;;;;;;3.50;0.85;;;21.50;30.40;21.80;94409.00;;;;10399884;28;45696;-74
2022/02/22 15:08:35;;;;;;;1.88;0.60;;;21.50;30.30;21.80;94433.00;;;;10381575;28;47061;-74
2022/02/22 15:13:38;;;;;;;3.78;0.88;;;21.50;30.30;21.70;94424.00;;;;10381018;28;47117;-74
2022/02/22 15:18:39;;;;;;;3.72;1.05;;;21.50;30.40;21.70;94423.00;;;;10381154;28;47164;-74
2022/02/22 15:23:40;;;;;;;3.05;1.00;;;21.50;30.30;21.70;94428.00;;;;10397824;28;45956;-74
2022/02/22 15:28:40;;;;;;;1.88;0.68;;;21.50;30.30;21.70;94425.00;;;;10397452;28;45444;-73
2022/02/22 15:33:45;;;;;;;2.38;0.82;;;21.50;30.30;21.70;94420.00;;;;10381022;28;47010;-74
2022/02/22 15:38:45;;;;;;;2.72;0.98;;;21.40;30.20;21.70;94415.00;;;;10397032;28;45338;-74
2022/02/22 15:43:46;;;;;;;2.63;0.73;;;21.40;30.20;21.70;94408.00;;;;10397444;28;45704;-74
2022/02/22 15:48:46;;;;;;;2.53;0.60;;;21.40;30.20;21.70;94419.00;;;;10380364;28;47530;-73
2022/02/22 15:53:49;;;;;;;2.78;0.60;;;21.40;30.20;21.70;94432.00;;;;10380720;28;47669;-74
2022/02/22 15:58:49;;;;;;;1.95;0.75;;;21.40;30.20;21.70;94410.00;;;;10380053;28;47976;-74
2022/02/22 16:03:50;;;;;;;2.58;0.95;;;21.40;30.20;21.70;94414.00;;;;10379998;28;47120;-74
2022/02/22 16:08:51;;;;;;;2.58;0.80;;;21.40;30.20;21.70;94417.00;;;;10396577;28;45112;-74
2022/02/22 16:13:52;;;;;;;2.13;0.80;;;21.40;30.20;21.60;94399.00;;;;10380077;28;47381;-74
2022/02/22 16:18:53;;;;;;;3.08;0.90;;;21.40;30.20;21.60;94414.00;;;;10379678;28;48136;-74
2022/02/22 16:23:54;;;;;;;2.25;0.80;;;21.40;30.20;21.60;94401.00;;;;10379746;28;47447;-73
2022/02/22 16:28:54;;;;;;;1.67;0.63;;;21.40;30.20;21.60;94422.00;;;;10378695;28;48538;-74
2022/02/22 16:33:55;;;;;;;2.55;1.00;;;21.30;30.10;21.60;94389.00;;;;10379172;28;47572;-74
2022/02/22 16:38:56;;;;;;;2.35;0.90;;;21.40;30.20;21.60;94412.00;;;;10394540;28;45474;-74
2022/02/22 16:43:56;;;;;;;2.35;0.80;;;21.40;30.00;21.50;94414.00;;;;10379768;28;47286;-74
2022/02/22 16:48:57;;;;;;;2.30;0.70;;;21.30;30.00;21.60;94410.00;;;;10378462;28;47197;-73
2022/02/22 16:53:58;;;;;;;3.13;0.93;;;21.30;30.00;21.70;94412.00;;;;10378622;28;48093;-73
2022/02/22 16:58:58;;;;;;;2.50;0.98;;;21.40;29.90;21.90;94428.00;;;;10395141;28;45533;-72
2022/02/22 17:04:00;;;;;;;3.90;1.40;;;21.50;29.70;22.00;94436.00;;;;10378410;28;48047;-73
2022/02/22 17:09:01;;;;;;;4.07;1.40;;;21.60;29.70;22.10;94437.00;;;;10377475;28;47149;-73
2022/02/22 17:14:01;;;;;;;4.65;0.90;;;21.70;29.50;22.30;94427.00;;;;10395291;28;45366;-72
2022/02/22 17:19:03;;;;;;;3.35;1.30;;;21.80;29.40;22.10;94416.00;;;;10394995;28;45430;-74
2022/02/22 17:24:05;;;;;;;6.00;1.50;;;21.90;29.20;21.70;94432.00;;;;10378164;28;47585;-73
2022/02/22 17:29:12;;;;;;;5.97;1.13;;;21.80;28.30;22.20;94447.00;;;;10393450;28;46246;-73
2022/02/22 17:34:13;;;;;;;4.57;1.00;;;21.90;29.20;22.40;94456.00;;;;10396641;28;47995;-73
2022/02/22 17:39:14;;;;;;;2.45;0.80;;;22.00;29.00;22.50;94442.00;;;;10385546;28;46887;-73
2022/02/22 17:44:14;;;;;;;3.85;1.38;;;22.10;28.80;22.60;94448.00;;;;10385178;28;48125;-73
2022/02/22 17:49:15;;;;;;;3.17;1.08;;;22.20;28.70;22.70;94437.00;;;;10401535;28;47156;-74
2022/02/22 17:54:16;;;;;;;3.30;1.10;;;22.30;28.30;22.60;94454.00;;;;10403085;28;46459;-73
2022/02/22 17:59:18;;;;;;;4.38;1.20;;;22.30;28.00;22.60;94453.00;;;;10401238;28;45436;-74
2022/02/22 18:04:19;;;;;;;4.05;1.00;;;22.30;27.90;22.60;94457.00;;;;10401681;28;45658;-74
2022/02/22 18:09:29;;;;;;;3.10;1.00;;;22.40;27.90;22.60;94460.00;;;;10400670;28;45242;-74
2022/02/22 18:14:30;;;;;;;2.92;0.88;;;22.40;28.10;22.60;94448.00;;;;10384504;28;48293;-73
2022/02/22 18:19:31;;;;;;;4.32;1.10;;;22.40;27.90;22.60;94450.00;;;;10401498;28;46291;-74
2022/02/22 18:24:31;;;;;;;2.97;0.95;;;22.40;27.90;22.60;94453.00;;;;10384803;28;47242;-74
2022/02/22 18:29:32;;;;;;;4.45;1.20;;;22.30;27.90;22.60;94454.00;;;;10399925;28;46947;-74
2022/02/22 18:34:33;;;;;;;2.15;0.90;;;22.40;28.00;22.70;94472.00;;;;10401571;28;45317;-74
2022/02/22 18:39:34;;;;;;;2.75;0.90;;;22.40;27.90;22.80;94470.00;;;;10383751;28;47174;-73
2022/02/22 18:44:35;;;;;;;2.72;1.00;;;22.50;27.80;22.80;94462.00;;;;10399814;28;45389;-73
2022/02/22 18:49:36;;;;;;;3.83;1.20;;;22.50;27.80;22.90;94481.00;;;;10383526;28;47238;-74
2022/02/22 18:54:36;;;;;;;3.47;0.90;;;22.60;27.90;23.00;94489.00;;;;10399639;28;48427;-74
2022/02/22 18:59:37;;;;;;;2.42;0.93;;;22.70;27.70;23.00;94496.00;;;;10382332;28;48144;-74
2022/02/22 19:04:38;;;;;;;2.83;0.93;;;22.70;27.70;23.00;94502.00;;;;10399644;28;46931;-75
2022/02/22 19:09:38;;;;;;;2.63;0.90;;;22.80;27.60;23.00;94487.00;;;;10381785;28;47152;-74
2022/02/22 19:14:39;;;;;;;4.38;1.13;;;22.80;27.60;23.00;94495.00;;;;10398490;28;48359;-74
2022/02/22 19:19:40;;;;;;;3.20;1.00;;;22.70;27.60;23.00;94498.00;;;;10398378;28;47230;-74
2022/02/22 19:24:41;;;;;;;2.45;1.00;;;22.80;27.70;23.10;94503.00;;;;10357525;28;46946;-74
2022/02/22 19:29:41;;;;;;;3.30;1.27;;;22.80;27.70;23.10;94510.00;;;;10357637;28;45524;-74
2022/02/22 19:34:45;;;;;;;3.90;0.93;;;22.80;27.50;23.10;94509.00;;;;10388511;28;48062;-74
2022/02/22 19:39:46;;;;;;;2.72;0.68;;;22.90;27.50;23.20;94510.00;;;;10398412;28;45685;-74
2022/02/22 19:44:47;;;;;;;4.35;1.02;;;22.90;27.50;23.10;94518.00;;;;10381357;28;46850;-73
2022/02/22 19:49:48;;;;;;;2.95;1.02;;;22.90;27.40;23.10;94512.00;;;;10380848;28;46969;-73
2022/02/22 19:54:48;;;;;;;3.55;0.77;;;22.90;27.40;23.10;94504.00;;;;10397393;28;45371;-73
2022/02/22 19:59:49;;;;;;;3.22;1.10;;;22.80;27.30;23.20;94503.00;;;;10379324;28;47318;-73
2022/02/22 20:04:59;;;;;;;3.90;0.82;;;22.90;27.80;23.30;94534.00;;;;10379999;28;47352;-75
2022/02/22 20:09:59;;;;;;;3.05;0.88;;;23.00;27.80;23.30;94524.00;;;;10379391;28;46993;-73
2022/02/22 20:15:00;;;;;;;2.15;0.70;;;23.00;27.80;23.50;94511.00;;;;10395630;28;45364;-74
2022/02/22 20:20:01;;;;;;;2.30;0.90;;;23.00;27.70;23.70;94527.00;;;;10396900;28;45113;-74
2022/02/22 20:25:06;;;;;;;2.13;0.70;;;23.20;28.10;23.80;94520.00;;;;10379848;28;47047;-74
2022/02/22 20:30:08;;;;;;;2.00;0.70;;;23.30;28.10;23.80;94523.00;;;;10395707;28;47018;-74
2022/02/22 20:35:09;;;;;;;2.22;0.80;;;23.40;28.30;23.90;94537.00;;;;10379291;28;47348;-74
2022/02/22 20:40:10;;;;;;;1.52;0.75;;;23.40;28.30;23.90;94532.00;;;;10379104;28;46930;-74
2022/02/22 20:45:11;;;;;;;2.95;0.90;;;23.50;28.50;23.90;94528.00;;;;10379511;28;48343;-74
2022/02/22 20:50:12;;;;;;;2.00;0.63;;;23.60;28.50;24.00;94528.00;;;;10378867;28;47442;-74
2022/02/22 20:55:13;;;;;;;1.70;0.68;;;23.60;28.60;24.00;94528.00;;;;10378988;28;48233;-74
2022/02/22 21:00:14;;;;;;;3.20;1.10;;;23.60;28.60;23.90;94535.00;;;;10396121;28;46361;-74
2022/02/22 21:05:16;;;;;;;2.40;0.70;;;23.60;28.60;23.90;94527.00;;;;10378949;28;47591;-74
2022/02/22 21:10:17;;;;;;;1.95;0.65;;;23.60;28.60;23.90;94522.00;;;;10397376;28;47252;-74
2022/02/22 21:15:18;;;;;;;2.65;0.70;;;23.60;28.70;23.90;94525.00;;;;10402604;28;45292;-74
2022/02/22 21:20:19;;;;;;;1.55;0.68;;;23.60;28.90;23.90;94551.00;;;;10401756;28;45271;-74
2022/02/22 21:25:20;;;;;;;1.85;0.55;;;23.60;28.70;23.90;94551.00;;;;10402144;28;45458;-74
2022/02/22 21:30:21;;;;;;;2.28;0.77;;;23.60;28.70;23.90;94552.00;;;;10384765;28;47287;-74
